Time;durP1;ratioP1;P1;durP2;ratioP2;P2;SDS_P1;SDS_P2;PMS_P1;PMS_P2;Temp;Humidity;BMP_temperature;BMP_pressure;BME280_temperature;BME280_humidity;BME280_pressure;Samples;Min_cycle;Max_cycle;Signal;HPM_P1;HPM_P2
2022/10/03 06:26:30;;;;;;;;;0.00;0.00;;;;;;;;5715951;22;8838;-91
2022/10/03 06:29:13;;;;;;;;;0.00;0.00;;;;;;;;5033202;28;8843;-95
2022/10/03 06:31:41;;;;;;;;;0.00;0.00;;;;;;;;5020608;28;8816;-95
2022/10/03 06:34:20;;;;;;;;;0.00;0.00;;;;;;;;5044319;23;8780;-96
2022/10/03 06:37:03;;;;;;;;;0.00;0.00;;;;;;;;5065487;28;8744;-95
2022/10/03 06:39:47;;;;;;;;;0.00;0.00;;;;;;;;5042460;28;11512;-94
2022/10/03 06:42:19;;;;;;;;;0.00;0.00;;;;;;;;5031913;28;11481;-96
2022/10/03 06:44:44;;;;;;;;;0.00;0.00;;;;;;;;5023210;28;8812;-95
2022/10/03 06:47:28;;;;;;;;;0.00;0.00;;;;;;;;5028710;28;11510;-96
2022/10/03 06:50:12;;;;;;;;;0.00;0.00;;;;;;;;5035550;28;10351;-96
2022/10/03 06:52:57;;;;;;;;;0.00;0.00;;;;;;;;5032066;28;9002;-96
2022/10/03 06:55:31;;;;;;;;;0.00;0.00;;;;;;;;5022811;28;8834;-95
2022/10/03 06:58:15;;;;;;;;;0.00;0.00;;;;;;;;5032473;28;8827;-96
2022/10/03 07:00:48;;;;;;;;;0.00;0.00;;;;;;;;5039917;28;11646;-96
2022/10/03 07:03:14;;;;;;;;;0.00;0.00;;;;;;;;5031890;28;11602;-96
2022/10/03 07:05:59;;;;;;;;;6.67;6.67;;;;;;;;5034862;28;11622;-94
2022/10/03 07:08:39;;;;;;;;;0.00;0.00;;;;;;;;5037989;28;9512;-94
2022/10/03 07:11:13;;;;;;;;;0.00;0.00;;;;;;;;5036354;28;11497;-96
2022/10/03 07:13:57;;;;;;;;;0.00;0.00;;;;;;;;5032087;28;11511;-95
2022/10/03 07:16:48;;;;;;;;;0.00;0.00;;;;;;;;5036546;28;11527;-95
2022/10/03 07:19:28;;;;;;;;;0.00;0.00;;;;;;;;5034474;28;11495;-95
2022/10/03 07:22:07;;;;;;;;;0.00;0.00;;;;;;;;5028487;28;11515;-95
2022/10/03 07:24:52;;;;;;;;;0.00;0.00;;;;;;;;5026568;28;11447;-95
2022/10/03 07:27:23;;;;;;;;;0.00;0.00;;;;;;;;4987530;28;11604;-94
2022/10/03 07:30:01;;;;;;;;;0.00;0.00;;;;;;;;4977256;28;11478;-95
2022/10/03 07:32:45;;;;;;;;;0.00;0.00;;;;;;;;4991993;28;9012;-96
2022/10/03 07:35:18;;;;;;;;;0.00;0.00;;;;;;;;4993973;28;11465;-95
2022/10/03 07:41:07;;;;;;;;;0.00;0.00;;;;;;;;4988442;28;11442;-94
2022/10/03 07:43:57;;;;;;;;;0.00;0.00;;;;;;;;4994360;28;11394;-96
2022/10/03 07:46:37;;;;;;;;;0.00;0.00;;;;;;;;4977282;28;11466;-94
2022/10/03 07:49:24;;;;;;;;;0.00;0.00;;;;;;;;4975121;28;11478;-96
2022/10/03 07:51:59;;;;;;;;;0.00;0.00;;;;;;;;4989804;28;11489;-96
2022/10/03 07:54:27;;;;;;;;;0.00;0.00;;;;;;;;4995496;28;11474;-95
2022/10/03 07:56:59;;;;;;;;;0.00;0.00;;;;;;;;4987901;28;11435;-96
2022/10/03 07:59:48;;;;;;;;;0.00;0.00;;;;;;;;4988905;28;11547;-94
2022/10/03 08:02:14;;;;;;;;;0.00;0.00;;;;;;;;4972254;28;9745;-95
2022/10/03 08:04:39;;;;;;;;;0.00;0.00;;;;;;;;5008601;28;11536;-96
2022/10/03 08:07:20;;;;;;;;;0.00;0.00;;;;;;;;5035158;28;8836;-96
2022/10/03 08:10:04;;;;;;;;;0.00;0.00;;;;;;;;5029596;28;8865;-95
2022/10/03 08:12:41;;;;;;;;;0.00;0.00;;;;;;;;5036693;28;8780;-92
2022/10/03 08:15:20;;;;;;;;;0.00;0.00;;;;;;;;5030763;28;11495;-95
2022/10/03 08:18:05;;;;;;;;;0.00;0.00;;;;;;;;5032426;28;11623;-95
2022/10/03 08:20:49;;;;;;;;;0.00;0.00;;;;;;;;5034308;28;8856;-95
2022/10/03 08:23:33;;;;;;;;;0.00;0.00;;;;;;;;5026195;28;11524;-95
2022/10/03 08:26:01;;;;;;;;;0.00;0.00;;;;;;;;5037607;28;8874;-96
2022/10/03 08:28:40;;;;;;;;;0.00;0.00;;;;;;;;5035639;28;11503;-95
2022/10/03 08:31:05;;;;;;;;;0.00;0.00;;;;;;;;5038002;28;11531;-95
2022/10/03 08:33:30;;;;;;;;;0.00;0.00;;;;;;;;5035005;28;11569;-94
2022/10/03 08:35:55;;;;;;;;;0.00;0.00;;;;;;;;5042137;28;8910;-95
2022/10/03 08:38:30;;;;;;;;;0.00;0.00;;;;;;;;5038595;28;8826;-94
2022/10/03 08:41:02;;;;;;;;;0.00;0.00;;;;;;;;5033231;28;8833;-96
2022/10/03 08:43:45;;;;;;;;;0.00;0.00;;;;;;;;5035567;28;11529;-95
2022/10/03 08:46:10;;;;;;;;;0.00;0.00;;;;;;;;5028659;28;11471;-94
2022/10/03 08:48:41;;;;;;;;;0.00;0.00;;;;;;;;5036413;28;11502;-92
2022/10/03 08:51:30;;;;;;;;;0.00;0.00;;;;;;;;5033334;28;9528;-95
2022/10/03 08:54:14;;;;;;;;;0.00;0.00;;;;;;;;5035411;28;11529;-95
2022/10/03 08:56:50;;;;;;;;;0.00;0.00;;;;;;;;5029752;28;11522;-94
2022/10/03 08:59:15;;;;;;;;;0.00;0.00;;;;;;;;5029026;28;11494;-96
2022/10/03 09:01:47;;;;;;;;;0.00;0.00;;;;;;;;5032447;28;11538;-95
2022/10/03 09:04:31;;;;;;;;;0.00;0.00;;;;;;;;5034713;28;9225;-95
2022/10/03 09:07:05;;;;;;;;;0.00;0.00;;;;;;;;5031596;28;11466;-94
2022/10/03 09:09:49;;;;;;;;;0.00;0.00;;;;;;;;5051479;28;11490;-96
2022/10/03 09:12:27;;;;;;;;;0.00;0.00;;;;;;;;5030507;28;11539;-94
2022/10/03 09:15:11;;;;;;;;;0.00;0.00;;;;;;;;5031355;28;11544;-94
2022/10/03 09:17:56;;;;;;;;;0.00;0.00;;;;;;;;5032158;28;8777;-96
2022/10/03 09:20:24;;;;;;;;;0.00;0.00;;;;;;;;5045289;28;11581;-95
2022/10/03 09:23:13;;;;;;;;;0.00;0.00;;;;;;;;5030139;28;11530;-94
2022/10/03 09:25:48;;;;;;;;;0.00;0.00;;;;;;;;4954216;28;11485;-95
2022/10/03 09:28:32;;;;;;;;;0.00;0.00;;;;;;;;4957286;28;11505;-94
2022/10/03 09:31:16;;;;;;;;;0.00;0.00;;;;;;;;4970641;28;11408;-95
2022/10/03 09:33:59;;;;;;;;;0.00;0.00;;;;;;;;4955849;28;11678;-95
2022/10/03 09:36:43;;;;;;;;;0.00;0.00;;;;;;;;4952131;28;11475;-95
2022/10/03 09:39:11;;;;;;;;;0.00;0.00;;;;;;;;4965912;28;11479;-94
2022/10/03 09:41:54;;;;;;;;;0.00;0.00;;;;;;;;4955090;28;11572;-96
2022/10/03 09:44:20;;;;;;;;;0.00;0.00;;;;;;;;4969941;28;11468;-96
2022/10/03 09:47:26;;;;;;;;;0.00;0.00;;;;;;;;4963287;28;11523;-94
2022/10/03 09:50:00;;;;;;;;;0.00;0.00;;;;;;;;4958272;28;8829;-94
2022/10/03 09:52:45;;;;;;;;;0.00;0.00;;;;;;;;4950444;28;11442;-95
2022/10/03 09:55:13;;;;;;;;;0.00;0.00;;;;;;;;4958836;28;11605;-95
2022/10/03 09:57:53;;;;;;;;;0.00;0.00;;;;;;;;4945468;28;11489;-96
2022/10/03 10:00:44;;;;;;;;;0.00;0.00;;;;;;;;4957663;28;12737;-95
2022/10/03 10:03:21;;;;;;;;;0.00;0.00;;;;;;;;4911960;29;11566;-91
2022/10/03 10:06:09;;;;;;;;;0.00;0.00;;;;;;;;4915300;29;11576;-92
2022/10/03 10:08:53;;;;;;;;;0.00;0.00;;;;;;;;4926580;29;11502;-96
2022/10/03 10:11:36;;;;;;;;;0.00;0.00;;;;;;;;4916587;29;11564;-96
2022/10/03 10:14:02;;;;;;;;;0.00;0.00;;;;;;;;4898509;29;11743;-95
2022/10/03 10:16:32;;;;;;;;;0.00;0.00;;;;;;;;4923776;29;11514;-95
2022/10/03 10:19:00;;;;;;;;;0.00;0.00;;;;;;;;4908522;29;11572;-90
2022/10/03 10:24:19;;;;;;;;;5.33;5.33;;;;;;;;5382232;22;12225;-95
2022/10/03 10:27:11;;;;;;;;;0.00;0.00;;;;;;;;5033435;28;11492;-96
2022/10/03 10:29:36;;;;;;;;;0.00;0.00;;;;;;;;5032279;28;11507;-96
2022/10/03 10:32:14;;;;;;;;;0.00;0.00;;;;;;;;5012634;28;11574;-95
2022/10/03 10:34:56;;;;;;;;;0.00;0.00;;;;;;;;5030384;28;8869;-91
2022/10/03 10:37:40;;;;;;;;;0.00;0.00;;;;;;;;4999134;28;11523;-95
2022/10/03 10:40:05;;;;;;;;;0.00;0.00;;;;;;;;5028299;28;11436;-92
2022/10/03 10:42:35;;;;;;;;;0.00;0.00;;;;;;;;5005162;28;11574;-93
2022/10/03 10:45:19;;;;;;;;;0.00;0.00;;;;;;;;5006301;28;8815;-90
2022/10/03 10:47:56;;;;;;;;;0.00;0.00;;;;;;;;5020382;28;11523;-90
2022/10/03 10:50:21;;;;;;;;;0.00;0.00;;;;;;;;5029013;28;11591;-90
2022/10/03 10:52:50;;;;;;;;;0.00;0.00;;;;;;;;5006049;28;11625;-91
2022/10/03 10:55:34;;;;;;;;;0.00;0.00;;;;;;;;5007625;28;9171;-92
2022/10/03 10:58:18;;;;;;;;;0.00;0.00;;;;;;;;4999869;28;11516;-89
2022/10/03 11:01:01;;;;;;;;;0.00;0.00;;;;;;;;5023494;28;11514;-90
2022/10/03 11:03:45;;;;;;;;;0.00;0.00;;;;;;;;5031723;28;11539;-90
2022/10/03 11:06:29;;;;;;;;;0.00;0.00;;;;;;;;5032075;28;11515;-88
2022/10/03 11:09:13;;;;;;;;;0.00;0.00;;;;;;;;5013522;28;11563;-89
2022/10/03 11:11:54;;;;;;;;;0.00;0.00;;;;;;;;5007905;28;12278;-89
2022/10/03 11:14:38;;;;;;;;;0.00;0.00;;;;;;;;5025212;28;11536;-91
2022/10/03 11:17:06;;;;;;;;;0.00;0.00;;;;;;;;5029519;28;11515;-91
2022/10/03 11:19:37;;;;;;;;;0.00;0.00;;;;;;;;5035397;28;11504;-90
2022/10/03 11:22:12;;;;;;;;;0.00;0.00;;;;;;;;5026062;28;11499;-91
2022/10/03 11:24:56;;;;;;;;;0.00;0.00;;;;;;;;5027863;28;11550;-92
2022/10/03 11:27:40;;;;;;;;;0.00;0.00;;;;;;;;5027497;28;11538;-92
2022/10/03 11:30:05;;;;;;;;;0.00;0.00;;;;;;;;5007062;28;11589;-91
2022/10/03 11:32:36;;;;;;;;;0.00;0.00;;;;;;;;5008541;28;11542;-92
2022/10/03 11:35:20;;;;;;;;;0.00;0.00;;;;;;;;5028623;28;9042;-92
2022/10/03 11:38:15;;;;;;;;;0.00;0.00;;;;;;;;5012738;28;11544;-92
2022/10/03 11:40:54;;;;;;;;;0.00;0.00;;;;;;;;5005892;28;11515;-92
2022/10/03 11:43:25;;;;;;;;;0.00;0.00;;;;;;;;5011495;28;11522;-92
2022/10/03 11:45:50;;;;;;;;;0.00;0.00;;;;;;;;5014340;28;11523;-92
2022/10/03 11:48:34;;;;;;;;;0.00;0.00;;;;;;;;5009917;28;11550;-92
2022/10/03 11:51:15;;;;;;;;;0.00;0.00;;;;;;;;5023406;28;9035;-89
2022/10/03 11:53:53;;;;;;;;;0.00;0.00;;;;;;;;5033609;28;11523;-89
2022/10/03 11:56:31;;;;;;;;;0.00;0.00;;;;;;;;5025066;28;11503;-90
2022/10/03 11:58:56;;;;;;;;;0.33;0.33;;;;;;;;5013108;28;11511;-90
2022/10/03 12:01:29;;;;;;;;;0.00;0.00;;;;;;;;5026589;28;11650;-90
2022/10/03 12:04:13;;;;;;;;;0.00;0.00;;;;;;;;5030721;28;8862;-91
2022/10/03 12:09:51;;;;;;;;;0.00;0.00;;;;;;;;5018977;28;11470;-92
2022/10/03 12:12:27;;;;;;;;;0.00;0.00;;;;;;;;5006549;28;11527;-91
2022/10/03 12:14:55;;;;;;;;;0.00;0.00;;;;;;;;5010702;28;11527;-91
2022/10/03 12:17:39;;;;;;;;;0.00;0.00;;;;;;;;5007437;28;11663;-91
2022/10/03 12:20:14;;;;;;;;;0.00;0.00;;;;;;;;5010119;28;11545;-91
2022/10/03 12:22:45;;;;;;;;;0.00;0.00;;;;;;;;5010327;28;11550;-91
2022/10/03 12:25:13;;;;;;;;;0.00;0.00;;;;;;;;5027165;28;11503;-91
2022/10/03 12:27:48;;;;;;;;;0.00;0.00;;;;;;;;5011769;28;11617;-91
2022/10/03 12:30:15;;;;;;;;;0.00;0.00;;;;;;;;5015493;28;11539;-91
2022/10/03 12:32:48;;;;;;;;;0.00;0.00;;;;;;;;5014703;28;11531;-92
2022/10/03 12:35:31;;;;;;;;;0.00;0.00;;;;;;;;5014971;28;11655;-91
2022/10/03 12:37:56;;;;;;;;;0.00;0.00;;;;;;;;5034243;28;11507;-92
2022/10/03 12:40:24;;;;;;;;;0.00;0.00;;;;;;;;5035355;28;11558;-91
2022/10/03 12:43:08;;;;;;;;;0.00;0.00;;;;;;;;5009162;28;9225;-91
2022/10/03 12:45:39;;;;;;;;;0.00;0.00;;;;;;;;5027189;28;11524;-91
2022/10/03 12:48:21;;;;;;;;;0.00;0.00;;;;;;;;5008169;28;11691;-91
2022/10/03 12:50:55;;;;;;;;;0.00;0.00;;;;;;;;5029029;28;11524;-91
2022/10/03 12:53:41;;;;;;;;;0.00;0.00;;;;;;;;4998095;28;11685;-90
2022/10/03 12:56:26;;;;;;;;;0.00;0.00;;;;;;;;4952152;28;11743;-91
2022/10/03 12:58:54;;;;;;;;;0.00;0.00;;;;;;;;4913890;29;11559;-91
2022/10/03 13:01:20;;;;;;;;;0.00;0.00;;;;;;;;4914602;29;11614;-91
2022/10/03 13:03:54;;;;;;;;;0.00;0.00;;;;;;;;4907160;29;11669;-91
2022/10/03 13:06:37;;;;;;;;;0.00;0.00;;;;;;;;4914042;29;9082;-91
2022/10/03 13:09:09;;;;;;;;;0.00;0.00;;;;;;;;4911250;29;11581;-92
2022/10/03 13:11:53;;;;;;;;;0.00;0.00;;;;;;;;4914751;29;11569;-92
2022/10/03 13:14:38;;;;;;;;;0.00;0.00;;;;;;;;4914634;29;11542;-91
2022/10/03 13:17:10;;;;;;;;;0.00;0.00;;;;;;;;4910188;29;11582;-92
2022/10/03 13:19:54;;;;;;;;;0.00;0.00;;;;;;;;4914294;29;11605;-92
2022/10/03 13:22:22;;;;;;;;;0.00;0.00;;;;;;;;4913422;29;11596;-92
2022/10/03 13:25:06;;;;;;;;;0.00;0.00;;;;;;;;4913799;29;11656;-92
2022/10/03 13:27:38;;;;;;;;;0.00;0.00;;;;;;;;4912232;29;11806;-92
2022/10/03 13:30:05;;;;;;;;;0.00;0.00;;;;;;;;4897808;29;11680;-92
2022/10/03 13:32:33;;;;;;;;;0.00;0.00;;;;;;;;4919368;28;11604;-91
2022/10/03 13:38:10;;;;;;;;;0.00;0.00;;;;;;;;5027915;28;11492;-92
2022/10/03 13:40:40;;;;;;;;;0.00;0.00;;;;;;;;5007602;28;11535;-91
2022/10/03 13:43:10;;;;;;;;;0.00;0.00;;;;;;;;5004521;28;12359;-91
2022/10/03 13:45:38;;;;;;;;;0.00;0.00;;;;;;;;5029138;28;11541;-92
2022/10/03 13:48:09;;;;;;;;;0.00;0.00;;;;;;;;5006757;28;11448;-91
2022/10/03 13:50:47;;;;;;;;;0.00;0.00;;;;;;;;5009923;28;11515;-91
2022/10/03 13:53:25;;;;;;;;;0.00;0.00;;;;;;;;5019922;28;11544;-92
2022/10/03 13:55:55;;;;;;;;;0.00;0.00;;;;;;;;5025995;28;11647;-91
2022/10/03 13:58:31;;;;;;;;;0.00;0.00;;;;;;;;5026692;28;11546;-91
2022/10/03 14:01:02;;;;;;;;;0.00;0.00;;;;;;;;5028219;28;11508;-90
2022/10/03 14:03:42;;;;;;;;;0.00;0.00;;;;;;;;5026454;28;11495;-92
2022/10/03 14:06:26;;;;;;;;;0.00;0.00;;;;;;;;5025204;28;11514;-91
2022/10/03 14:09:00;;;;;;;;;0.00;0.00;;;;;;;;5021489;28;11539;-92
2022/10/03 14:11:44;;;;;;;;;0.00;0.00;;;;;;;;5022554;28;11607;-93
2022/10/03 14:14:12;;;;;;;;;0.00;0.00;;;;;;;;5029720;28;11523;-93
2022/10/03 14:17:04;;;;;;;;;0.00;0.00;;;;;;;;5008778;28;11536;-93
2022/10/03 14:19:42;;;;;;;;;0.00;0.00;;;;;;;;4962662;28;11570;-91
2022/10/03 14:22:17;;;;;;;;;0.00;0.00;;;;;;;;4979601;28;11486;-94
2022/10/03 14:24:54;;;;;;;;;0.00;0.00;;;;;;;;4962460;28;11618;-92
2022/10/03 14:27:19;;;;;;;;;0.00;0.00;;;;;;;;4970278;28;11436;-90
2022/10/03 14:30:20;;;;;;;;;0.00;0.00;;;;;;;;4984372;28;11507;-96
2022/10/03 14:58:42;;;;;;;;;0.00;0.00;;;;;;;;5448083;22;11472;-95
2022/10/03 15:01:11;;;;;;;;;0.00;0.00;;;;;;;;5006007;28;11448;-94
2022/10/03 15:03:43;;;;;;;;;0.00;0.00;;;;;;;;5003193;28;11559;-94
2022/10/03 15:06:08;;;;;;;;;0.00;0.00;;;;;;;;5019632;28;11447;-96
2022/10/03 15:08:42;;;;;;;;;0.00;0.00;;;;;;;;5008957;28;11506;-94
2022/10/03 15:11:08;;;;;;;;;0.00;0.00;;;;;;;;5025897;28;8801;-94
2022/10/03 15:13:45;;;;;;;;;0.00;0.00;;;;;;;;5024935;28;11419;-93
2022/10/03 15:16:15;;;;;;;;;0.00;0.00;;;;;;;;5010464;28;11431;-93
2022/10/03 15:18:44;;;;;;;;;0.00;0.00;;;;;;;;5020414;28;11542;-91
2022/10/03 15:21:13;;;;;;;;;0.00;0.00;;;;;;;;5010854;28;11636;-90
2022/10/03 15:23:41;;;;;;;;;0.00;0.00;;;;;;;;5017907;28;11553;-90
2022/10/03 15:26:10;;;;;;;;;0.00;0.00;;;;;;;;5028344;28;11452;-90
2022/10/03 15:28:38;;;;;;;;;0.00;0.00;;;;;;;;5018720;28;11459;-90
2022/10/03 15:31:08;;;;;;;;;0.00;0.00;;;;;;;;5028128;28;11514;-91
2022/10/03 15:33:35;;;;;;;;;0.00;0.00;;;;;;;;5009864;28;11463;-91
2022/10/03 15:36:15;;;;;;;;;0.00;0.00;;;;;;;;5008188;28;11556;-90
2022/10/03 15:38:42;;;;;;;;;0.00;0.00;;;;;;;;5007170;28;11419;-90
2022/10/03 15:41:07;;;;;;;;;0.00;0.00;;;;;;;;5002323;28;11549;-91
2022/10/03 15:43:49;;;;;;;;;0.00;0.00;;;;;;;;5007215;28;11439;-91
2022/10/03 15:46:35;;;;;;;;;0.00;0.00;;;;;;;;5022055;28;8836;-92
2022/10/03 15:49:21;;;;;;;;;0.00;0.00;;;;;;;;5012254;28;11443;-91
2022/10/03 15:51:46;;;;;;;;;0.00;0.00;;;;;;;;4933319;28;11589;-91
2022/10/03 15:54:15;;;;;;;;;0.00;0.00;;;;;;;;4930660;28;11717;-91
2022/10/03 15:56:42;;;;;;;;;0.00;0.00;;;;;;;;4951551;28;8790;-91
2022/10/03 15:59:14;;;;;;;;;0.00;0.00;;;;;;;;4940118;28;11435;-92
2022/10/03 16:01:44;;;;;;;;;0.00;0.00;;;;;;;;4933074;28;11474;-91
2022/10/03 16:04:17;;;;;;;;;0.00;0.00;;;;;;;;4935065;28;11473;-91
2022/10/03 16:06:58;;;;;;;;;0.00;0.00;;;;;;;;4947444;28;11473;-92
2022/10/03 16:09:31;;;;;;;;;0.00;0.00;;;;;;;;4945539;28;11504;-92
2022/10/03 16:11:57;;;;;;;;;0.00;0.00;;;;;;;;4945883;28;11537;-91
2022/10/03 16:14:26;;;;;;;;;0.00;0.00;;;;;;;;4946028;28;11490;-93
2022/10/03 16:17:14;;;;;;;;;0.00;0.00;;;;;;;;4952760;28;8772;-93
2022/10/03 16:19:41;;;;;;;;;0.00;0.00;;;;;;;;4946597;28;11618;-93
2022/10/03 16:22:42;;;;;;;;;0.00;0.00;;;;;;;;4941873;28;11508;-93
2022/10/03 16:25:07;;;;;;;;;0.00;0.00;;;;;;;;4882793;29;11534;-93
2022/10/03 16:27:35;;;;;;;;;0.00;0.00;;;;;;;;4896161;29;11470;-92
2022/10/03 16:30:09;;;;;;;;;0.00;0.00;;;;;;;;4916312;29;8832;-93
2022/10/03 16:32:49;;;;;;;;;0.00;0.00;;;;;;;;4930677;28;11691;-93
2022/10/03 16:35:30;;;;;;;;;0.00;0.00;;;;;;;;4926535;28;11596;-93
2022/10/03 16:37:55;;;;;;;;;0.00;0.00;;;;;;;;4932550;28;11559;-93
2022/10/03 16:40:21;;;;;;;;;0.00;0.00;;;;;;;;4938546;28;11609;-93
2022/10/03 16:42:49;;;;;;;;;0.00;0.00;;;;;;;;4923642;29;8847;-92
2022/10/03 16:45:24;;;;;;;;;0.00;0.00;;;;;;;;4940715;28;11567;-92
2022/10/03 16:50:23;;;;;;;;;0.00;0.00;;;;;;;;4933769;28;11559;-92
2022/10/03 16:50:41;;;;;;;;;0.00;0.00;;;;;;;;4934829;28;11575;-92
2022/10/03 16:53:10;;;;;;;;;0.00;0.00;;;;;;;;4932224;28;11524;-92
2022/10/03 16:55:41;;;;;;;;;0.00;0.00;;;;;;;;4920652;29;11750;-93
2022/10/03 16:58:06;;;;;;;;;0.00;0.00;;;;;;;;4929107;28;11508;-93
2022/10/03 17:00:37;;;;;;;;;0.00;0.00;;;;;;;;5021911;28;11644;-92
2022/10/03 17:03:05;;;;;;;;;0.00;0.00;;;;;;;;5011233;28;9143;-93
2022/10/03 17:05:39;;;;;;;;;0.00;0.00;;;;;;;;5002749;28;11435;-92
2022/10/03 17:08:09;;;;;;;;;0.00;0.00;;;;;;;;5011713;28;12229;-90
2022/10/03 17:10:36;;;;;;;;;0.00;0.00;;;;;;;;5019698;28;11590;-91
2022/10/03 17:13:11;;;;;;;;;0.00;0.00;;;;;;;;5003395;28;11463;-91
2022/10/03 17:15:40;;;;;;;;;0.00;0.00;;;;;;;;5028531;28;11407;-91
2022/10/03 17:18:26;;;;;;;;;0.00;0.00;;;;;;;;5021537;28;11428;-90
2022/10/03 17:20:54;;;;;;;;;0.00;0.00;;;;;;;;5008821;28;11546;-91
2022/10/03 17:23:25;;;;;;;;;0.00;0.00;;;;;;;;5010097;28;11497;-96
2022/10/03 17:26:02;;;;;;;;;0.00;0.00;;;;;;;;5010839;28;11456;-93
2022/10/03 17:28:27;;;;;;;;;0.00;0.00;;;;;;;;5001306;28;11448;-90
2022/10/03 17:30:58;;;;;;;;;0.00;0.00;;;;;;;;5023515;28;11463;-93
2022/10/03 17:34:02;;;;;;;;;0.00;0.00;;;;;;;;5008874;28;8945;-96
2022/10/03 17:36:31;;;;;;;;;0.00;0.00;;;;;;;;4985647;28;11595;-93
2022/10/03 17:38:56;;;;;;;;;0.00;0.00;;;;;;;;4992806;28;11461;-93
2022/10/03 17:41:26;;;;;;;;;0.00;0.00;;;;;;;;5006774;28;11479;-90
2022/10/03 17:44:04;;;;;;;;;0.00;0.00;;;;;;;;5002414;28;9558;-92
2022/10/03 17:46:42;;;;;;;;;0.00;0.00;;;;;;;;5019827;28;11625;-92
2022/10/03 17:49:19;;;;;;;;;0.00;0.00;;;;;;;;5030071;28;11593;-93
2022/10/03 17:51:48;;;;;;;;;0.00;0.00;;;;;;;;5023584;28;11501;-93
2022/10/03 17:54:15;;;;;;;;;0.00;0.00;;;;;;;;5010087;28;11447;-93
2022/10/03 17:56:43;;;;;;;;;0.00;0.00;;;;;;;;5010907;28;11455;-93
2022/10/03 17:59:13;;;;;;;;;0.00;0.00;;;;;;;;5032600;28;11605;-91
2022/10/03 18:01:41;;;;;;;;;0.00;0.00;;;;;;;;5029668;28;11435;-93
2022/10/03 18:04:14;;;;;;;;;0.00;0.00;;;;;;;;5017533;28;11392;-91
2022/10/03 18:06:43;;;;;;;;;0.00;0.00;;;;;;;;5008705;28;11451;-88
2022/10/03 18:09:14;;;;;;;;;0.00;0.00;;;;;;;;5028985;28;11352;-91
2022/10/03 18:11:41;;;;;;;;;0.00;0.00;;;;;;;;5015250;28;11447;-93
2022/10/03 18:14:10;;;;;;;;;0.00;0.00;;;;;;;;5011285;28;11455;-95
2022/10/03 18:16:36;;;;;;;;;0.00;0.00;;;;;;;;5011786;28;11464;-93
2022/10/03 18:19:20;;;;;;;;;0.00;0.00;;;;;;;;5029739;28;11457;-93
2022/10/03 18:22:03;;;;;;;;;0.00;0.00;;;;;;;;5006114;28;11505;-92
2022/10/03 18:24:29;;;;;;;;;0.00;0.00;;;;;;;;5031315;28;8802;-94
2022/10/03 18:27:13;;;;;;;;;0.00;0.00;;;;;;;;5005555;28;11469;-92
2022/10/03 18:29:51;;;;;;;;;0.00;0.00;;;;;;;;5000319;28;10635;-96
2022/10/03 18:32:23;;;;;;;;;0.00;0.00;;;;;;;;5000644;28;11452;-95
2022/10/03 18:34:54;;;;;;;;;0.00;0.00;;;;;;;;5012428;28;11573;-93
2022/10/03 18:37:23;;;;;;;;;0.00;0.00;;;;;;;;5007913;28;11464;-92
2022/10/03 18:39:49;;;;;;;;;0.00;0.00;;;;;;;;5010283;28;11452;-91
2022/10/03 18:42:15;;;;;;;;;0.00;0.00;;;;;;;;4999432;28;11453;-94
2022/10/03 18:44:42;;;;;;;;;0.00;0.00;;;;;;;;5002474;28;11543;-96
2022/10/03 18:47:11;;;;;;;;;0.00;0.00;;;;;;;;5015069;28;8770;-93
2022/10/03 18:49:38;;;;;;;;;0.00;0.00;;;;;;;;5021571;28;11429;-91
2022/10/03 18:52:09;;;;;;;;;0.00;0.00;;;;;;;;5003053;28;11447;-93
2022/10/03 18:54:53;;;;;;;;;0.00;0.00;;;;;;;;5008486;28;11439;-90
2022/10/03 18:57:29;;;;;;;;;0.00;0.00;;;;;;;;5004903;28;11464;-96
2022/10/03 18:59:57;;;;;;;;;0.00;0.00;;;;;;;;5027279;28;11380;-95
2022/10/03 19:02:32;;;;;;;;;0.00;0.00;;;;;;;;5003808;28;11448;-93
2022/10/03 19:05:10;;;;;;;;;0.00;0.00;;;;;;;;5008705;28;11448;-91
2022/10/03 19:07:41;;;;;;;;;0.00;0.00;;;;;;;;5000136;28;12239;-94
2022/10/03 19:10:33;;;;;;;;;0.00;0.00;;;;;;;;5021275;28;11479;-94
2022/10/03 19:13:07;;;;;;;;;0.00;0.00;;;;;;;;5008591;28;11488;-94
2022/10/03 19:15:51;;;;;;;;;0.00;0.00;;;;;;;;5006524;28;11413;-94
2022/10/03 19:18:25;;;;;;;;;0.00;0.00;;;;;;;;5019784;28;11435;-93
2022/10/03 19:20:52;;;;;;;;;0.00;0.00;;;;;;;;5015896;28;11387;-93
2022/10/03 19:23:25;;;;;;;;;3.00;3.00;;;;;;;;5012209;28;11427;-93
2022/10/03 19:26:00;;;;;;;;;0.00;0.00;;;;;;;;5007641;28;11481;-92
2022/10/03 19:28:30;;;;;;;;;0.00;0.00;;;;;;;;5019247;28;11450;-92
2022/10/03 19:30:58;;;;;;;;;0.00;0.00;;;;;;;;5007293;28;11429;-94
2022/10/03 19:33:25;;;;;;;;;0.00;0.00;;;;;;;;5010602;28;11546;-93
2022/10/03 19:35:54;;;;;;;;;0.00;0.00;;;;;;;;5006490;28;11441;-92
2022/10/03 19:38:21;;;;;;;;;0.00;0.00;;;;;;;;5011422;28;11533;-94
2022/10/03 19:40:53;;;;;;;;;0.00;0.00;;;;;;;;5006104;28;11554;-93
2022/10/03 19:43:28;;;;;;;;;0.00;0.00;;;;;;;;5008814;28;12233;-94
2022/10/03 19:46:13;;;;;;;;;0.00;0.00;;;;;;;;5011862;28;11447;-93
2022/10/03 19:49:02;;;;;;;;;0.00;0.00;;;;;;;;5004028;28;12400;-93
2022/10/03 19:51:27;;;;;;;;;0.00;0.00;;;;;;;;5009042;28;11574;-93
2022/10/03 19:53:56;;;;;;;;;0.00;0.00;;;;;;;;5009268;28;12401;-94
2022/10/03 19:56:22;;;;;;;;;0.00;0.00;;;;;;;;5030714;28;8856;-91
2022/10/03 19:58:58;;;;;;;;;0.00;0.00;;;;;;;;5009551;28;11548;-93
2022/10/03 20:01:23;;;;;;;;;0.00;0.00;;;;;;;;5015996;28;11451;-93
2022/10/03 20:03:53;;;;;;;;;0.00;0.00;;;;;;;;5015520;28;11439;-94
2022/10/03 20:06:32;;;;;;;;;0.00;0.00;;;;;;;;5005155;28;8815;-94
2022/10/03 20:08:57;;;;;;;;;0.00;0.00;;;;;;;;5012371;28;11427;-93
2022/10/03 20:11:41;;;;;;;;;0.00;0.00;;;;;;;;5002857;28;11447;-94
2022/10/03 20:14:12;;;;;;;;;0.00;0.00;;;;;;;;5027154;28;9000;-95
2022/10/03 20:16:41;;;;;;;;;0.00;0.00;;;;;;;;5016748;28;11493;-95
2022/10/03 20:19:11;;;;;;;;;0.00;0.00;;;;;;;;5005264;28;11506;-94
2022/10/03 20:21:36;;;;;;;;;0.00;0.00;;;;;;;;5007503;28;11431;-94
2022/10/03 20:24:07;;;;;;;;;0.00;0.00;;;;;;;;5008577;28;8824;-96
2022/10/03 20:26:54;;;;;;;;;0.00;0.00;;;;;;;;5012426;28;8893;-96
2022/10/03 20:29:19;;;;;;;;;0.00;0.00;;;;;;;;5003598;28;11458;-95
2022/10/03 20:31:45;;;;;;;;;0.00;0.00;;;;;;;;5020497;28;11455;-96
2022/10/03 20:34:12;;;;;;;;;0.00;0.00;;;;;;;;5020667;28;8936;-96
2022/10/03 20:36:40;;;;;;;;;0.00;0.00;;;;;;;;5020897;28;11419;-96
2022/10/03 20:39:09;;;;;;;;;0.00;0.00;;;;;;;;5021025;28;11533;-96
2022/10/03 20:41:50;;;;;;;;;0.00;0.00;;;;;;;;5020661;28;11459;-96
2022/10/03 20:44:38;;;;;;;;;0.00;0.00;;;;;;;;5019210;28;11390;-96
2022/10/03 20:47:11;;;;;;;;;0.00;0.00;;;;;;;;5019013;28;11374;-96
2022/10/03 20:49:59;;;;;;;;;12.00;12.00;;;;;;;;5017002;28;9710;-96
2022/10/03 20:52:32;;;;;;;;;0.00;0.00;;;;;;;;5006146;28;8933;-96
2022/10/03 20:55:14;;;;;;;;;0.00;0.00;;;;;;;;5002039;28;8829;-96
2022/10/03 20:57:42;;;;;;;;;0.00;0.00;;;;;;;;5013444;28;8897;-96
2022/10/03 21:00:57;;;;;;;;;0.00;0.00;;;;;;;;5006276;28;11444;-96
2022/10/03 21:03:50;;;;;;;;;0.00;0.00;;;;;;;;4964068;28;8746;-96
2022/10/03 21:06:18;;;;;;;;;0.00;0.00;;;;;;;;4955543;28;11516;-96
2022/10/03 21:08:49;;;;;;;;;0.00;0.00;;;;;;;;4955407;28;8818;-96
2022/10/03 21:11:23;;;;;;;;;0.00;0.00;;;;;;;;4955341;28;11464;-96
2022/10/03 21:13:58;;;;;;;;;0.00;0.00;;;;;;;;4939842;28;8822;-96
2022/10/03 21:16:33;;;;;;;;;0.00;0.00;;;;;;;;4939021;28;8738;-96
2022/10/03 21:19:00;;;;;;;;;0.00;0.00;;;;;;;;4938753;28;11449;-96
2022/10/03 21:21:30;;;;;;;;;0.00;0.00;;;;;;;;4938720;28;11592;-96
2022/10/03 21:24:09;;;;;;;;;0.00;0.00;;;;;;;;4938077;28;12433;-96
2022/10/03 21:27:09;;;;;;;;;0.00;0.00;;;;;;;;4938485;28;11570;-96
2022/10/03 21:29:58;;;;;;;;;0.00;0.00;;;;;;;;4938554;28;11529;-96
2022/10/03 21:32:42;;;;;;;;;0.00;0.00;;;;;;;;4950563;28;11446;-96
2022/10/03 21:41:30;;;;;;;;;0.00;0.00;;;;;;;;5014086;28;11381;-96
2022/10/03 21:44:27;;;;;;;;;0.00;0.00;;;;;;;;5026884;28;8825;-96
2022/10/03 21:47:14;;;;;;;;;0.00;0.00;;;;;;;;5032130;28;11458;-96
2022/10/03 21:49:54;;;;;;;;;0.00;0.00;;;;;;;;5010716;28;11440;-96
2022/10/03 21:52:55;;;;;;;;;;;;;;;;;;;;;
2022/10/03 21:55:45;;;;;;;;;0.00;0.00;;;;;;;;4932154;28;35432;-96
2022/10/03 21:58:48;;;;;;;;;0.00;0.00;;;;;;;;4933041;29;8804;-96
2022/10/03 22:01:41;;;;;;;;;0.00;0.00;;;;;;;;4842926;29;11470;-96
2022/10/03 22:04:14;;;;;;;;;0.00;0.00;;;;;;;;4852854;29;8823;-96
2022/10/03 22:06:47;;;;;;;;;0.00;0.00;;;;;;;;4859682;29;8914;-96
2022/10/03 22:09:38;;;;;;;;;0.00;0.00;;;;;;;;4844321;29;8814;-96
2022/10/03 22:12:09;;;;;;;;;0.00;0.00;;;;;;;;4859138;29;8815;-96
2022/10/03 22:14:37;;;;;;;;;3.00;3.00;;;;;;;;4844693;29;8814;-96
2022/10/03 22:17:21;;;;;;;;;0.00;0.00;;;;;;;;4860019;29;9800;-96
2022/10/03 22:19:52;;;;;;;;;0.00;0.00;;;;;;;;4847194;29;11509;-96
2022/10/03 22:22:25;;;;;;;;;0.00;0.00;;;;;;;;4864294;29;8860;-95
2022/10/03 22:27:57;;;;;;;;;0.00;0.00;;;;;;;;4877576;29;8800;-96
2022/10/03 22:30:22;;;;;;;;;0.00;0.00;;;;;;;;4877649;29;8798;-96
2022/10/03 22:33:16;;;;;;;;;0.00;0.00;;;;;;;;4919896;29;8834;-96
2022/10/03 22:35:52;;;;;;;;;0.00;0.00;;;;;;;;4924690;28;8944;-96
2022/10/03 22:38:21;;;;;;;;;0.00;0.00;;;;;;;;5015335;28;11427;-96
2022/10/03 22:40:50;;;;;;;;;0.00;0.00;;;;;;;;5010319;28;8884;-96
2022/10/03 22:43:16;;;;;;;;;0.00;0.00;;;;;;;;4997220;28;12390;-96
2022/10/03 22:45:48;;;;;;;;;0.00;0.00;;;;;;;;4996703;28;8811;-96
2022/10/03 22:48:18;;;;;;;;;0.00;0.00;;;;;;;;4998681;28;8810;-96